createdAt,value
2023-02-24T00:00:31.210Z,100.00
2023-02-24T00:03:06.111Z,100.00
2023-02-24T00:05:44.638Z,100.00
2023-02-24T00:08:14.808Z,100.00
2023-02-24T00:10:45.285Z,100.00
2023-02-24T00:13:21.706Z,100.00
2023-02-24T00:16:02.746Z,100.00
2023-02-24T00:18:32.914Z,100.00
2023-02-24T00:21:11.792Z,100.00
2023-02-24T00:23:42.324Z,100.00
2023-02-24T00:26:14.330Z,100.00
2023-02-24T00:28:45.003Z,100.00
2023-02-24T00:31:17.307Z,100.00
2023-02-24T00:33:48.733Z,100.00
2023-02-24T00:36:25.493Z,100.00
2023-02-24T00:38:58.122Z,100.00
2023-02-24T00:41:30.845Z,100.00
2023-02-24T00:44:06.324Z,100.00
2023-02-24T00:46:38.736Z,100.00
2023-02-24T00:49:11.325Z,100.00
2023-02-24T00:51:45.772Z,100.00
2023-02-24T00:54:17.379Z,100.00
2023-02-24T00:56:50.608Z,100.00
2023-02-24T00:59:22.536Z,100.00
2023-02-24T01:01:55.037Z,100.00
2023-02-24T01:04:25.282Z,100.00
2023-02-24T01:07:00.516Z,100.00
2023-02-24T01:09:32.581Z,100.00
2023-02-24T01:12:17.692Z,100.00
2023-02-24T01:14:50.026Z,100.00
2023-02-24T01:17:21.706Z,100.00
2023-02-24T01:19:52.218Z,100.00
2023-02-24T01:22:25.504Z,100.00
2023-02-24T01:24:55.777Z,100.00
2023-02-24T01:27:25.781Z,100.00
2023-02-24T01:29:55.822Z,100.00
2023-02-24T01:32:29.110Z,100.00
2023-02-24T01:34:59.787Z,100.00
2023-02-24T01:37:32.491Z,100.00
2023-02-24T01:40:07.828Z,100.00
2023-02-24T01:42:38.978Z,100.00
2023-02-24T01:45:22.014Z,100.00
2023-02-24T01:47:52.642Z,100.00
2023-02-24T01:50:26.315Z,100.00
2023-02-24T01:53:04.421Z,100.00
2023-02-24T01:55:37.489Z,100.00
2023-02-24T01:58:12.352Z,100.00
2023-02-24T02:00:45.749Z,100.00
2023-02-24T02:03:24.420Z,100.00
2023-02-24T02:05:56.289Z,100.00
2023-02-24T02:08:29.424Z,100.00
2023-02-24T02:11:06.366Z,100.00
2023-02-24T02:13:38.807Z,100.00
2023-02-24T02:16:28.173Z,100.00
2023-02-24T02:19:19.476Z,100.00
2023-02-24T02:22:17.331Z,100.00
2023-02-24T02:24:59.055Z,100.00
2023-02-24T02:27:46.792Z,100.00
2023-02-24T02:31:02.230Z,100.00
2023-02-24T02:34:05.625Z,100.00
2023-02-24T02:36:47.196Z,100.00
2023-02-24T02:39:25.116Z,100.00
2023-02-24T02:42:01.813Z,100.00
2023-02-24T02:44:40.185Z,100.00
2023-02-24T02:47:20.202Z,100.00
2023-02-24T02:49:55.307Z,100.00
2023-02-24T02:52:33.140Z,100.00
2023-02-24T02:55:10.297Z,100.00
2023-02-24T02:57:47.390Z,100.00
2023-02-24T03:00:23.133Z,100.00
2023-02-24T03:02:56.811Z,100.00
2023-02-24T03:05:33.143Z,100.00
2023-02-24T03:08:11.699Z,100.00
2023-02-24T03:10:44.997Z,100.00
2023-02-24T03:13:16.711Z,100.00
2023-02-24T03:15:48.316Z,100.00
2023-02-24T03:18:29.221Z,100.00
2023-02-24T03:21:08.812Z,100.00
2023-02-24T03:23:47.121Z,100.00
2023-02-24T03:26:24.000Z,100.00
2023-02-24T03:29:01.670Z,100.00
2023-02-24T03:31:38.070Z,100.00
2023-02-24T03:34:12.782Z,100.00
2023-02-24T03:36:43.322Z,100.00
2023-02-24T03:39:16.168Z,100.00
2023-02-24T03:41:54.387Z,100.00
2023-02-24T03:44:24.978Z,100.00
2023-02-24T03:46:56.571Z,100.00
2023-02-24T03:49:27.311Z,100.00
2023-02-24T03:52:10.529Z,100.00
2023-02-24T03:54:59.526Z,100.00
2023-02-24T03:57:37.775Z,100.00
2023-02-24T04:00:26.547Z,100.00
2023-02-24T04:03:04.882Z,100.00
2023-02-24T04:05:47.583Z,100.00
2023-02-24T04:08:20.470Z,100.00
2023-02-24T04:11:05.512Z,100.00
2023-02-24T04:13:40.631Z,100.00
2023-02-24T04:16:17.284Z,100.00
2023-02-24T04:18:51.520Z,100.00
2023-02-24T04:21:23.923Z,100.00
2023-02-24T04:23:54.413Z,100.00
2023-02-24T04:26:29.848Z,100.00
2023-02-24T04:29:00.495Z,100.00
2023-02-24T04:31:31.833Z,100.00
2023-02-24T04:34:02.146Z,100.00
2023-02-24T04:36:34.347Z,100.00
2023-02-24T04:39:05.256Z,100.00
2023-02-24T04:41:37.801Z,100.00
2023-02-24T04:44:07.888Z,100.00
2023-02-24T04:46:37.851Z,100.00
2023-02-24T04:49:07.916Z,100.00
2023-02-24T04:51:42.528Z,100.00
2023-02-24T04:54:15.899Z,100.00
2023-02-24T04:56:51.034Z,100.00
2023-02-24T04:59:21.887Z,100.00
2023-02-24T05:02:00.623Z,100.00
2023-02-24T05:04:33.740Z,100.00
2023-02-24T05:07:03.937Z,100.00
2023-02-24T05:09:33.860Z,100.00
2023-02-24T05:12:06.969Z,100.00
2023-02-24T05:14:37.083Z,100.00
2023-02-24T05:17:07.154Z,100.00
2023-02-24T05:19:49.682Z,100.00
2023-02-24T05:22:19.723Z,100.00
2023-02-24T05:24:50.362Z,100.00
2023-02-24T05:27:24.284Z,100.00
2023-02-24T05:29:55.974Z,100.00
2023-02-24T05:32:28.931Z,100.00
2023-02-24T05:34:59.749Z,100.00
2023-02-24T05:37:29.738Z,100.00
2023-02-24T05:40:01.403Z,100.00
2023-02-24T05:42:35.376Z,100.00
2023-02-24T05:45:05.811Z,100.00
2023-02-24T05:47:36.896Z,100.00
2023-02-24T05:50:09.351Z,100.00
2023-02-24T05:52:39.843Z,100.00
2023-02-24T05:55:14.217Z,100.00
2023-02-24T05:57:46.807Z,100.00
2023-02-24T06:00:17.939Z,100.00
2023-02-24T06:02:50.941Z,100.00
2023-02-24T06:05:37.237Z,100.00
2023-02-24T06:08:11.882Z,100.00
2023-02-24T06:10:43.558Z,100.00
2023-02-24T06:13:16.152Z,100.00
2023-02-24T06:15:50.723Z,100.00
2023-02-24T06:18:21.676Z,100.00
2023-02-24T06:20:51.591Z,100.00
2023-02-24T06:23:21.513Z,100.00
2023-02-24T06:25:51.377Z,100.00
2023-02-24T06:28:23.948Z,100.00
2023-02-24T06:30:53.864Z,100.00
2023-02-24T06:33:26.537Z,100.00
2023-02-24T06:35:56.444Z,100.00
2023-02-24T06:38:26.366Z,100.00
2023-02-24T06:41:00.436Z,100.00
2023-02-24T06:43:33.039Z,100.00
2023-02-24T06:46:06.226Z,100.00
2023-02-24T06:48:36.804Z,100.00
2023-02-24T06:51:08.393Z,100.00
2023-02-24T06:53:43.356Z,99.40
2023-02-24T06:56:19.982Z,99.21
2023-02-24T06:58:55.529Z,100.00
2023-02-24T07:01:28.941Z,100.00
2023-02-24T07:04:18.046Z,100.00
2023-02-24T07:06:52.482Z,100.00
2023-02-24T07:09:25.034Z,100.00
2023-02-24T07:11:56.962Z,100.00
2023-02-24T07:14:31.905Z,100.00
2023-02-24T07:17:03.958Z,100.00
2023-02-24T07:19:35.006Z,100.00
2023-02-24T07:22:06.143Z,100.00
2023-02-24T07:24:46.509Z,100.00
2023-02-24T07:27:22.764Z,100.00
2023-02-24T07:29:55.561Z,100.00
2023-02-24T07:32:25.938Z,99.38
2023-02-24T07:34:56.002Z,99.41
2023-02-24T07:37:25.924Z,99.55
2023-02-24T07:39:55.899Z,99.63
2023-02-24T07:42:25.842Z,99.11
2023-02-24T07:44:58.498Z,99.42
2023-02-24T07:47:28.673Z,99.36
2023-02-24T07:50:00.516Z,98.97
2023-02-24T07:52:32.702Z,98.34
2023-02-24T07:55:03.111Z,99.19
2023-02-24T07:57:33.481Z,99.10
2023-02-24T08:00:18.052Z,98.96
2023-02-24T08:02:49.095Z,97.51
2023-02-24T08:05:19.389Z,97.50
2023-02-24T08:07:50.375Z,98.12
2023-02-24T08:10:37.019Z,98.50
2023-02-24T08:13:07.274Z,98.03
2023-02-24T08:15:39.841Z,96.46
2023-02-24T08:18:09.766Z,96.39
2023-02-24T08:20:52.422Z,96.61
2023-02-24T08:23:23.714Z,96.01
2023-02-24T08:25:53.924Z,96.52
2023-02-24T08:28:27.058Z,96.46
2023-02-24T08:30:59.637Z,95.83
2023-02-24T08:33:30.658Z,95.81
2023-02-24T08:36:02.404Z,96.14
2023-02-24T08:38:44.846Z,96.29
2023-02-24T08:41:18.436Z,95.40
2023-02-24T08:43:49.403Z,95.94
2023-02-24T08:46:26.941Z,95.28
2023-02-24T08:49:01.286Z,95.66
2023-02-24T08:51:35.272Z,95.93
2023-02-24T08:54:11.514Z,95.34
2023-02-24T08:56:44.453Z,95.46
2023-02-24T08:59:29.496Z,95.30
2023-02-24T09:02:17.626Z,95.65
2023-02-24T09:04:48.214Z,95.73
2023-02-24T09:07:19.568Z,95.38
2023-02-24T09:09:50.219Z,95.35
2023-02-24T09:12:25.164Z,95.90
2023-02-24T09:14:58.470Z,95.20
2023-02-24T09:17:50.360Z,95.28
2023-02-24T09:20:35.023Z,95.09
2023-02-24T09:23:07.390Z,94.95
2023-02-24T09:25:45.434Z,95.19
2023-02-24T09:28:18.201Z,95.21
2023-02-24T09:30:54.076Z,95.00
2023-02-24T09:33:29.303Z,95.04
2023-02-24T09:36:10.089Z,95.41
2023-02-24T09:39:02.524Z,95.66
2023-02-24T09:41:54.076Z,94.98
2023-02-24T09:44:30.014Z,94.41
2023-02-24T09:47:09.396Z,94.08
2023-02-24T09:49:50.643Z,94.61
2023-02-24T09:52:37.999Z,94.63
2023-02-24T09:55:25.425Z,95.18
2023-02-24T09:58:20.418Z,94.08
2023-02-24T10:00:57.931Z,94.72
2023-02-24T10:03:48.391Z,93.85
2023-02-24T10:06:23.853Z,94.17
2023-02-24T10:09:00.050Z,94.90
2023-02-24T10:11:36.179Z,94.82
2023-02-24T10:14:09.500Z,95.08
2023-02-24T10:16:46.513Z,94.36
2023-02-24T10:19:27.351Z,93.84
2023-02-24T10:22:06.171Z,94.06
2023-02-24T10:24:47.607Z,94.94
2023-02-24T10:27:25.250Z,95.02
2023-02-24T10:30:11.136Z,94.23
2023-02-24T10:32:50.948Z,94.28
2023-02-24T10:35:26.246Z,94.15
2023-02-24T10:38:05.597Z,94.90
2023-02-24T10:40:45.176Z,94.95
2023-02-24T10:43:30.335Z,95.68
2023-02-24T10:46:17.512Z,95.90
2023-02-24T10:49:00.738Z,95.30
2023-02-24T10:51:37.385Z,96.58
2023-02-24T10:54:34.481Z,95.18
2023-02-24T10:57:18.969Z,95.45
2023-02-24T11:00:21.092Z,97.02
2023-02-24T11:03:07.396Z,96.83
2023-02-24T11:05:44.538Z,97.42
2023-02-24T11:08:36.956Z,97.33
2023-02-24T11:11:25.676Z,96.98
2023-02-24T11:14:10.600Z,97.89
2023-02-24T11:17:01.185Z,98.93
2023-02-24T11:19:32.647Z,99.01
2023-02-24T11:22:05.362Z,99.75
2023-02-24T11:24:35.356Z,99.61
2023-02-24T11:27:11.334Z,100.00
2023-02-24T11:29:58.756Z,100.00
2023-02-24T11:32:41.619Z,100.00
2023-02-24T11:35:20.793Z,100.00
2023-02-24T11:38:02.051Z,100.00
2023-02-24T11:40:36.779Z,100.00
2023-02-24T11:43:18.552Z,100.00
2023-02-24T11:45:51.985Z,100.00
2023-02-24T11:48:27.760Z,100.00
2023-02-24T11:51:02.782Z,100.00
2023-02-24T11:53:38.336Z,100.00
2023-02-24T11:56:14.104Z,100.00
2023-02-24T11:58:52.290Z,100.00
2023-02-24T12:01:30.133Z,100.00
2023-02-24T12:04:14.375Z,100.00
2023-02-24T12:06:55.679Z,100.00
2023-02-24T12:09:30.193Z,100.00
2023-02-24T12:12:05.066Z,100.00
2023-02-24T12:14:42.788Z,100.00
2023-02-24T12:17:21.279Z,100.00
2023-02-24T12:20:02.322Z,100.00
2023-02-24T12:22:46.226Z,100.00
2023-02-24T12:25:20.268Z,100.00
2023-02-24T12:28:04.907Z,100.00
2023-02-24T12:31:00.234Z,100.00
2023-02-24T12:33:45.920Z,100.00
2023-02-24T12:36:29.285Z,100.00
2023-02-24T12:39:12.458Z,100.00
2023-02-24T12:41:58.414Z,100.00
2023-02-24T12:44:37.646Z,100.00
2023-02-24T12:47:16.177Z,100.00
2023-02-24T12:50:27.278Z,100.00
2023-02-24T12:53:03.555Z,100.00
2023-02-24T12:55:40.835Z,100.00
2023-02-24T12:58:16.685Z,100.00
2023-02-24T13:00:58.307Z,100.00
2023-02-24T13:03:47.649Z,100.00
2023-02-24T13:06:24.945Z,100.00
2023-02-24T13:09:03.744Z,100.00
2023-02-24T13:11:43.207Z,100.00
2023-02-24T13:14:22.700Z,100.00
2023-02-24T13:16:52.940Z,100.00
2023-02-24T13:19:32.886Z,100.00
2023-02-24T13:22:09.292Z,100.00
2023-02-24T13:24:40.244Z,100.00
2023-02-24T13:27:23.823Z,100.00
2023-02-24T13:29:57.610Z,100.00
2023-02-24T13:32:31.952Z,100.00
2023-02-24T13:35:07.229Z,100.00
2023-02-24T13:37:39.599Z,100.00
2023-02-24T13:40:28.496Z,100.00
2023-02-24T13:43:04.983Z,100.00
2023-02-24T13:45:37.321Z,100.00
2023-02-24T13:48:25.307Z,100.00
2023-02-24T13:51:13.998Z,100.00
2023-02-24T13:54:02.044Z,100.00
2023-02-24T13:56:43.415Z,100.00
2023-02-24T13:59:44.116Z,100.00
2023-02-24T14:02:19.922Z,100.00
2023-02-24T14:04:52.343Z,100.00
2023-02-24T14:07:27.198Z,100.00
2023-02-24T14:10:00.905Z,100.00
2023-02-24T14:12:32.767Z,100.00
2023-02-24T14:15:04.516Z,100.00
2023-02-24T14:17:36.555Z,100.00
2023-02-24T14:20:21.003Z,100.00
2023-02-24T14:22:56.076Z,100.00
2023-02-24T14:25:27.188Z,100.00
2023-02-24T14:27:58.761Z,100.00
2023-02-24T14:30:34.535Z,100.00
2023-02-24T14:33:06.058Z,100.00
2023-02-24T14:35:39.879Z,100.00
2023-02-24T14:38:31.570Z,100.00
2023-02-24T14:41:01.571Z,100.00
2023-02-24T14:43:31.711Z,100.00
2023-02-24T14:46:09.383Z,100.00
2023-02-24T14:48:39.531Z,100.00
2023-02-24T14:51:13.189Z,100.00
2023-02-24T14:53:52.814Z,100.00
2023-02-24T14:56:26.137Z,100.00
2023-02-24T14:59:00.349Z,100.00
2023-02-24T15:01:35.384Z,100.00
2023-02-24T15:04:15.662Z,100.00
2023-02-24T15:06:46.843Z,100.00
2023-02-24T15:09:23.961Z,100.00
2023-02-24T15:11:56.264Z,100.00
2023-02-24T15:14:29.743Z,100.00
2023-02-24T15:17:03.693Z,100.00
2023-02-24T15:19:37.524Z,100.00
2023-02-24T15:22:20.037Z,100.00
2023-02-24T15:24:53.828Z,100.00
2023-02-24T15:27:27.358Z,100.00
2023-02-24T15:30:03.030Z,100.00
2023-02-24T15:32:35.820Z,100.00
2023-02-24T15:35:06.390Z,100.00
2023-02-24T15:37:44.969Z,100.00
2023-02-24T15:40:24.477Z,100.00
2023-02-24T15:42:55.895Z,100.00
2023-02-24T15:45:31.206Z,100.00
2023-02-24T15:48:02.757Z,100.00
2023-02-24T15:50:34.965Z,100.00
2023-02-24T15:53:09.280Z,100.00
2023-02-24T15:55:44.504Z,100.00
2023-02-24T15:58:18.460Z,100.00
2023-02-24T16:00:53.416Z,100.00
2023-02-24T16:03:23.426Z,100.00
2023-02-24T16:05:53.471Z,100.00
2023-02-24T16:08:24.846Z,100.00
2023-02-24T16:10:58.142Z,100.00
2023-02-24T16:13:30.615Z,100.00
2023-02-24T16:16:00.740Z,100.00
2023-02-24T16:18:30.641Z,100.00
2023-02-24T16:21:00.772Z,100.00
2023-02-24T16:23:30.751Z,100.00
2023-02-24T16:26:03.378Z,100.00
2023-02-24T16:28:34.733Z,100.00
2023-02-24T16:31:05.289Z,100.00
2023-02-24T16:33:51.860Z,100.00
2023-02-24T16:36:25.804Z,100.00
2023-02-24T16:38:56.124Z,100.00
2023-02-24T16:41:30.696Z,100.00
2023-02-24T16:44:00.601Z,100.00
2023-02-24T16:46:35.950Z,100.00
2023-02-24T16:49:06.158Z,100.00
2023-02-24T16:51:36.139Z,100.00
2023-02-24T16:54:06.158Z,100.00
2023-02-24T16:56:38.684Z,100.00
2023-02-24T16:59:08.851Z,100.00
2023-02-24T17:01:39.155Z,100.00
2023-02-24T17:04:11.253Z,100.00
2023-02-24T17:06:41.323Z,100.00
2023-02-24T17:09:15.791Z,100.00
2023-02-24T17:11:48.464Z,100.00
2023-02-24T17:14:19.916Z,100.00
2023-02-24T17:16:50.699Z,100.00
2023-02-24T17:19:20.745Z,100.00
2023-02-24T17:21:50.760Z,100.00
2023-02-24T17:24:22.912Z,100.00
2023-02-24T17:27:00.039Z,100.00
2023-02-24T17:29:30.219Z,100.00
2023-02-24T17:32:00.531Z,100.00
2023-02-24T17:34:31.654Z,100.00
2023-02-24T17:37:01.580Z,100.00
2023-02-24T17:39:31.803Z,100.00
2023-02-24T17:42:04.645Z,100.00
2023-02-24T17:44:34.773Z,100.00
2023-02-24T17:47:06.521Z,100.00
2023-02-24T17:49:36.483Z,100.00
2023-02-24T17:52:06.569Z,100.00
2023-02-24T17:54:36.583Z,100.00
2023-02-24T17:57:09.342Z,100.00
2023-02-24T17:59:39.775Z,100.00
2023-02-24T18:02:09.965Z,100.00
2023-02-24T18:04:40.498Z,100.00
2023-02-24T18:07:10.522Z,100.00
2023-02-24T18:09:40.529Z,100.00
2023-02-24T18:12:13.161Z,100.00
2023-02-24T18:14:43.306Z,100.00
2023-02-24T18:17:15.198Z,100.00
2023-02-24T18:19:45.178Z,100.00
2023-02-24T18:22:15.330Z,100.00
2023-02-24T18:24:45.914Z,100.00
2023-02-24T18:27:18.844Z,100.00
2023-02-24T18:29:49.040Z,100.00
2023-02-24T18:32:19.221Z,100.00
2023-02-24T18:34:49.761Z,100.00
2023-02-24T18:37:20.382Z,100.00
2023-02-24T18:39:53.094Z,100.00
2023-02-24T18:42:25.927Z,100.00
2023-02-24T18:44:55.842Z,100.00
2023-02-24T18:47:26.136Z,100.00
2023-02-24T18:49:56.153Z,100.00
2023-02-24T18:52:26.178Z,100.00
2023-02-24T18:54:56.590Z,100.00
2023-02-24T18:57:29.490Z,100.00
2023-02-24T18:59:59.578Z,100.00
2023-02-24T19:02:30.284Z,100.00
2023-02-24T19:05:00.402Z,100.00
2023-02-24T19:07:30.887Z,100.00
2023-02-24T19:10:00.935Z,100.00
2023-02-24T19:12:33.931Z,100.00
2023-02-24T19:15:05.012Z,100.00
2023-02-24T19:17:37.159Z,100.00
2023-02-24T19:20:10.878Z,100.00
2023-02-24T19:22:40.913Z,100.00
2023-02-24T19:25:11.417Z,100.00
2023-02-24T19:27:44.718Z,100.00
2023-02-24T19:30:15.401Z,100.00
2023-02-24T19:32:45.595Z,100.00
2023-02-24T19:35:15.884Z,100.00
2023-02-24T19:37:46.018Z,100.00
2023-02-24T19:40:16.185Z,100.00
2023-02-24T19:42:52.014Z,100.00
2023-02-24T19:45:39.081Z,100.00
2023-02-24T19:48:15.877Z,100.00
2023-02-24T19:50:48.519Z,100.00
2023-02-24T19:53:18.773Z,100.00
2023-02-24T19:55:53.049Z,100.00
2023-02-24T19:58:26.312Z,100.00
2023-02-24T20:00:56.548Z,100.00
2023-02-24T20:03:29.565Z,100.00
2023-02-24T20:05:59.749Z,100.00
2023-02-24T20:08:29.758Z,100.00
2023-02-24T20:11:04.676Z,100.00
2023-02-24T20:13:37.453Z,100.00
2023-02-24T20:16:11.392Z,100.00
2023-02-24T20:18:42.227Z,100.00
2023-02-24T20:21:13.518Z,100.00
2023-02-24T20:23:44.372Z,100.00
2023-02-24T20:26:16.626Z,100.00
2023-02-24T20:28:50.653Z,100.00
2023-02-24T20:31:22.625Z,100.00
2023-02-24T20:33:53.709Z,100.00
2023-02-24T20:36:26.089Z,100.00
2023-02-24T20:38:58.081Z,100.00
2023-02-24T20:41:28.603Z,100.00
2023-02-24T20:44:01.760Z,100.00
2023-02-24T20:46:33.642Z,100.00
2023-02-24T20:49:05.742Z,100.00
2023-02-24T20:51:39.255Z,100.00
2023-02-24T20:54:10.492Z,100.00
2023-02-24T20:56:42.319Z,100.00
2023-02-24T20:59:25.553Z,100.00
2023-02-24T21:01:55.833Z,100.00
2023-02-24T21:04:25.995Z,100.00
2023-02-24T21:06:57.029Z,100.00
2023-02-24T21:09:27.508Z,100.00
2023-02-24T21:11:57.659Z,100.00
2023-02-24T21:14:31.502Z,100.00
2023-02-24T21:17:01.823Z,100.00
2023-02-24T21:19:32.669Z,100.00
2023-02-24T21:22:02.918Z,100.00
2023-02-24T21:24:33.142Z,100.00
2023-02-24T21:27:03.224Z,100.00
2023-02-24T21:29:35.930Z,100.00
2023-02-24T21:32:06.378Z,100.00
2023-02-24T21:34:36.630Z,100.00
2023-02-24T21:37:07.555Z,100.00
2023-02-24T21:39:37.651Z,100.00
2023-02-24T21:42:08.200Z,100.00
2023-02-24T21:44:44.415Z,100.00
2023-02-24T21:47:14.653Z,100.00
2023-02-24T21:49:46.442Z,100.00
2023-02-24T21:52:16.842Z,100.00
2023-02-24T21:54:46.952Z,100.00
2023-02-24T21:57:17.394Z,100.00
2023-02-24T21:59:50.586Z,100.00
2023-02-24T22:02:20.936Z,100.00
2023-02-24T22:04:52.330Z,100.00
2023-02-24T22:07:22.353Z,100.00
2023-02-24T22:09:53.314Z,100.00
2023-02-24T22:12:23.347Z,100.00
2023-02-24T22:14:56.122Z,100.00
2023-02-24T22:17:26.190Z,100.00
2023-02-24T22:20:06.766Z,100.00
2023-02-24T22:22:39.571Z,100.00
2023-02-24T22:25:11.010Z,100.00
2023-02-24T22:27:41.445Z,100.00
2023-02-24T22:30:15.549Z,100.00
2023-02-24T22:32:45.766Z,100.00
2023-02-24T22:35:15.908Z,100.00
2023-02-24T22:37:45.997Z,100.00
2023-02-24T22:40:19.317Z,100.00
2023-02-24T22:42:51.668Z,100.00
2023-02-24T22:45:34.612Z,100.00
2023-02-24T22:48:04.798Z,100.00
2023-02-24T22:50:36.424Z,100.00
2023-02-24T22:53:06.428Z,100.00
2023-02-24T22:55:37.115Z,100.00
2023-02-24T22:58:10.956Z,100.00
2023-02-24T23:00:47.580Z,100.00
2023-02-24T23:03:19.104Z,100.00
2023-02-24T23:05:58.207Z,100.00
2023-02-24T23:08:28.649Z,100.00
2023-02-24T23:11:05.962Z,100.00
2023-02-24T23:13:36.526Z,100.00
2023-02-24T23:16:14.225Z,100.00
2023-02-24T23:18:52.337Z,100.00
2023-02-24T23:21:29.996Z,100.00
2023-02-24T23:24:01.902Z,100.00
2023-02-24T23:26:32.750Z,100.00
2023-02-24T23:29:03.069Z,100.00
2023-02-24T23:31:52.687Z,100.00
2023-02-24T23:34:23.228Z,100.00
2023-02-24T23:36:53.536Z,100.00
2023-02-24T23:39:25.092Z,100.00
2023-02-24T23:41:57.883Z,100.00
2023-02-24T23:44:28.090Z,100.00
2023-02-24T23:47:01.754Z,100.00
2023-02-24T23:49:47.313Z,100.00
2023-02-24T23:52:18.409Z,100.00
2023-02-24T23:55:09.324Z,100.00
2023-02-24T23:57:39.521Z,100.00
